MUCF/CFG METAR and TAF weather

Enter ICAO airport designator
Station Type Date Time Source
MUCF METAR 2019/04/25 07:59 UTC NOAA

MUCF 250759Z AUTO 08004KT 21/19 Q1014


Station Type Date Time Source
MUCF Decoded METAR 2019/04/25 07:59 UTC NOAA

Cienfuegos, Las Villas, Cuba (MUCF) 22-09N 080-24W 39M
Apr 25, 2019 - 03:59 AM EDT / 2019.04.25 0759 UTC
Wind: from the E (080 degrees) at 5 MPH (4 KT):0
Temperature: 69 F (21 C)
Dew Point: 66 F (19 C)
Relative Humidity: 88%
Pressure (altimeter): 29.94 in. Hg (1014 hPa)
ob: MUCF 250759Z AUTO 08004KT 21/19 Q1014
cycle: 8

Station Type Date Time Source
MUCF TAF 2019/04/24 18:39 UTC NOAA

MUCF 241700Z 2418/2506 22008KT 9000 SCT020
BECMG 2501/2503 VRB03KT

Example: see airport list